Time;durP1;ratioP1;P1;durP2;ratioP2;P2;SDS_P1;SDS_P2;PMS_P1;PMS_P2;Temp;Humidity;BMP_temperature;BMP_pressure;BME280_temperature;BME280_humidity;BME280_pressure;Samples;Min_cycle;Max_cycle;Signal;HPM_P1;HPM_P2
2023/05/19 00:01:51;;;;;;;8.27;3.65;;;;;;;16.56;55.88;101274.72;5053835;28;20053;-56
2023/05/19 00:04:18;;;;;;;7.70;3.67;;;;;;;16.50;55.48;101265.16;5061836;28;20127;-57
2023/05/19 00:06:49;;;;;;;8.88;4.25;;;;;;;16.44;56.10;101263.47;5058173;28;20057;-49
2023/05/19 00:09:16;;;;;;;9.98;4.05;;;;;;;16.43;56.91;101261.72;5058383;28;20155;-56
2023/05/19 00:11:43;;;;;;;14.25;3.63;;;;;;;16.40;56.87;101264.38;5059616;28;20057;-57
2023/05/19 00:14:10;;;;;;;10.65;3.58;;;;;;;16.40;56.37;101269.59;5059026;28;20052;-52
2023/05/19 00:16:37;;;;;;;8.45;3.72;;;;;;;16.38;56.27;101266.09;5058272;28;20051;-58
2023/05/19 00:19:05;;;;;;;9.40;3.92;;;;;;;16.38;56.79;101271.34;5061556;28;20048;-57
2023/05/19 00:21:32;;;;;;;7.97;3.85;;;;;;;16.36;56.30;101262.66;5041964;28;20045;-51
2023/05/19 00:23:58;;;;;;;11.70;4.57;;;;;;;16.36;56.25;101267.00;5050296;28;20047;-54
2023/05/19 00:26:26;;;;;;;11.70;4.15;;;;;;;16.34;56.25;101267.00;5059239;28;20041;-56
2023/05/19 00:28:53;;;;;;;12.63;4.97;;;;;;;16.32;56.51;101274.03;5040539;28;20127;-56
2023/05/19 00:31:19;;;;;;;11.40;5.28;;;;;;;16.27;56.47;101273.16;5055602;28;20056;-53
2023/05/19 00:33:46;;;;;;;9.60;4.28;;;;;;;16.22;56.84;101273.22;5058259;28;20132;-56
2023/05/19 00:36:13;;;;;;;8.05;4.25;;;;;;;16.19;56.45;101271.47;5057321;28;20064;-48
2023/05/19 00:38:39;;;;;;;12.05;5.28;;;;;;;16.16;56.20;101281.97;5061131;28;20056;-57
2023/05/19 00:41:06;;;;;;;8.85;3.88;;;;;;;16.14;56.47;101268.03;5058117;28;20492;-55
2023/05/19 00:43:33;;;;;;;12.25;4.63;;;;;;;16.12;56.62;101276.75;5050024;28;20054;-58
2023/05/19 00:46:00;;;;;;;12.55;4.32;;;;;;;16.10;57.08;101271.53;5059560;28;20056;-55
2023/05/19 00:48:27;;;;;;;11.73;4.97;;;;;;;16.08;57.18;101272.44;5060428;28;20040;-54
2023/05/19 00:51:00;;;;;;;9.55;4.10;;;;;;;16.04;57.32;101272.44;5057899;28;20048;-53
2023/05/19 00:53:28;;;;;;;10.73;4.40;;;;;;;16.03;57.27;101270.72;5048095;28;20504;-51
2023/05/19 00:55:55;;;;;;;10.68;4.22;;;;;;;16.00;57.09;101270.72;5055750;28;20458;-53
2023/05/19 00:58:24;;;;;;;10.35;4.72;;;;;;;15.97;57.34;101269.88;5055852;28;20041;-58
2023/05/19 01:00:51;;;;;;;11.63;4.40;;;;;;;15.94;57.51;101266.38;5059276;28;20063;-53
2023/05/19 01:03:19;;;;;;;8.10;4.18;;;;;;;15.92;57.21;101268.13;5058465;28;20045;-57
2023/05/19 01:05:48;;;;;;;9.60;4.13;;;;;;;15.88;57.81;101260.31;5056636;28;20045;-53
2023/05/19 01:08:15;;;;;;;13.77;4.55;;;;;;;15.81;57.78;101267.31;5058687;28;20045;-54
2023/05/19 01:10:41;;;;;;;9.48;3.90;;;;;;;15.79;58.22;101271.69;5058971;28;20082;-53
2023/05/19 01:13:08;;;;;;;11.27;3.78;;;;;;;15.76;58.30;101271.69;5058018;28;20124;-53
2023/05/19 01:15:54;;;;;;;6.88;3.45;;;;;;;15.74;58.37;101273.44;5053988;28;20075;-51
2023/05/19 01:18:30;;;;;;;9.77;3.92;;;;;;;15.71;58.29;101276.06;5055719;28;20137;-57
2023/05/19 01:21:14;;;;;;;10.88;4.00;;;;;;;15.65;58.43;101279.56;5049773;28;20454;-52
2023/05/19 01:31:37;;;;;;;9.93;4.30;;;;;;;15.44;59.09;101262.25;4993412;28;20414;-55
2023/05/19 01:34:05;;;;;;;10.27;4.75;;;;;;;15.35;59.56;101256.19;4992869;28;20073;-50
2023/05/19 01:36:32;;;;;;;13.13;4.70;;;;;;;15.25;60.20;101263.19;4977755;28;20050;-51
2023/05/19 01:39:01;;;;;;;8.90;3.83;;;;;;;15.20;60.50;101251.00;4987285;28;20050;-49
2023/05/19 01:41:29;;;;;;;9.88;4.07;;;;;;;15.18;60.24;101256.22;4995833;28;20122;-51
2023/05/19 01:43:57;;;;;;;8.18;4.05;;;;;;;15.11;61.31;101252.78;4979789;28;20046;-53
2023/05/19 01:46:24;;;;;;;9.30;4.25;;;;;;;15.02;61.66;101252.78;4975690;28;20059;-52
2023/05/19 01:48:51;;;;;;;9.02;4.05;;;;;;;14.95;61.50;101258.88;4977626;28;20522;-53
2023/05/19 01:51:18;;;;;;;10.73;4.28;;;;;;;14.94;61.31;101265.84;4977572;28;20554;-54
2023/05/19 01:53:44;;;;;;;9.18;4.35;;;;;;;14.95;62.03;101261.47;4983546;28;20047;-52
2023/05/19 01:56:20;;;;;;;8.13;3.80;;;;;;;14.96;61.50;101265.84;4979406;28;20054;-48
2023/05/19 01:58:57;;;;;;;13.57;4.10;;;;;;;14.97;60.99;101265.84;4978104;28;20104;-56
2023/05/19 02:01:29;;;;;;;;;;;;;;;14.80;61.37;101267.59;4976292;28;20050;-50
2023/05/19 02:07:07;;;;;;;8.77;3.47;;;;;;;14.98;61.26;101271.91;5035700;28;20423;-49
2023/05/19 02:10:13;;;;;;;7.10;3.10;;;;;;;14.89;61.64;101268.47;5011941;28;20050;-51
2023/05/19 02:12:40;;;;;;;10.13;3.67;;;;;;;14.93;61.30;101271.91;5005066;28;20049;-48
2023/05/19 02:15:15;;;;;;;10.95;4.18;;;;;;;14.87;61.48;101270.22;5010725;28;20038;-53
2023/05/19 02:17:47;;;;;;;8.50;3.90;;;;;;;14.82;61.67;101266.72;5012659;28;20053;-52
2023/05/19 02:20:15;;;;;;;7.82;3.05;;;;;;;14.73;62.59;101266.72;5013696;28;20132;-55
2023/05/19 02:22:42;;;;;;;9.88;3.50;;;;;;;14.68;62.44;101265.81;4989923;28;20065;-53
2023/05/19 02:25:09;;;;;;;10.55;3.22;;;;;;;14.69;62.29;101275.41;5009056;28;20050;-54
2023/05/19 02:27:37;;;;;;;9.05;3.80;;;;;;;14.70;62.21;101267.59;5013788;28;20053;-53
2023/05/19 02:30:05;;;;;;;6.30;3.50;;;;;;;14.72;62.28;101271.03;5011888;28;20497;-51
2023/05/19 02:32:32;;;;;;;9.30;3.25;;;;;;;14.72;61.84;101265.81;5014320;28;20050;-57
2023/05/19 02:34:59;;;;;;;11.77;3.78;;;;;;;14.72;62.00;101264.94;5013947;28;20046;-56
2023/05/19 02:37:27;;;;;;;11.18;3.80;;;;;;;14.69;62.00;101265.81;5010127;28;20053;-51
2023/05/19 02:39:54;;;;;;;11.40;4.15;;;;;;;14.67;62.06;101270.19;5017731;28;20050;-53
2023/05/19 02:42:21;;;;;;;10.07;3.83;;;;;;;14.65;61.81;101270.19;5012959;28;20505;-54
2023/05/19 02:44:48;;;;;;;8.80;3.13;;;;;;;14.64;62.06;101260.63;5011941;28;20061;-53
2023/05/19 02:47:14;;;;;;;10.32;4.55;;;;;;;14.64;61.73;101263.25;5009593;28;20037;-50
2023/05/19 02:49:42;;;;;;;8.82;3.40;;;;;;;14.59;62.30;101246.72;5013396;28;20050;-52
2023/05/19 02:52:10;;;;;;;8.13;3.53;;;;;;;14.53;62.64;101255.41;5009856;28;20049;-54
2023/05/19 02:54:37;;;;;;;12.23;3.67;;;;;;;14.50;62.59;101259.75;5011559;28;20057;-56
2023/05/19 02:57:04;;;;;;;14.25;4.20;;;;;;;14.48;62.38;101256.25;5010513;28;20049;-55
2023/05/19 02:59:31;;;;;;;11.73;4.18;;;;;;;14.46;61.93;101258.00;5010312;28;20050;-57
2023/05/19 03:02:00;;;;;;;11.30;4.10;;;;;;;14.45;62.90;101258.91;5012437;28;20121;-54
2023/05/19 03:04:28;;;;;;;9.23;3.95;;;;;;;14.44;62.05;101254.53;5006872;28;20061;-51
2023/05/19 03:06:56;;;;;;;10.73;2.88;;;;;;;14.42;62.65;101251.06;5012817;28;20042;-53
2023/05/19 03:09:23;;;;;;;12.30;3.67;;;;;;;14.38;62.59;101256.28;5007526;28;20129;-55
2023/05/19 03:11:49;;;;;;;9.52;3.50;;;;;;;14.37;62.26;101258.88;5010592;28;20056;-55
2023/05/19 03:14:17;;;;;;;9.52;4.22;;;;;;;14.34;62.76;101249.31;5011923;28;20045;-50
2023/05/19 03:16:44;;;;;;;10.82;3.47;;;;;;;14.33;62.42;101263.22;5002528;28;20414;-54
2023/05/19 03:19:11;;;;;;;8.60;3.47;;;;;;;14.31;62.40;101259.72;4997643;28;20046;-59
2023/05/19 03:21:38;;;;;;;9.68;3.63;;;;;;;14.30;63.02;101257.13;5000421;28;20133;-51
2023/05/19 03:24:05;;;;;;;8.35;3.70;;;;;;;14.29;62.65;101250.19;5002844;28;20117;-53
2023/05/19 03:26:32;;;;;;;9.13;3.08;;;;;;;14.27;62.57;101252.78;4996290;28;20041;-52
2023/05/19 03:28:58;;;;;;;8.90;4.00;;;;;;;14.24;62.39;101257.97;5005305;28;20845;-51
2023/05/19 03:31:25;;;;;;;11.88;4.13;;;;;;;14.22;62.56;101255.38;4996116;28;20048;-56
2023/05/19 03:33:52;;;;;;;8.75;3.63;;;;;;;14.18;62.94;101247.56;4993589;28;20493;-53
2023/05/19 03:36:19;;;;;;;10.27;4.05;;;;;;;14.17;62.21;101241.47;4993804;28;20423;-54
2023/05/19 03:38:45;;;;;;;9.27;3.20;;;;;;;14.14;63.36;101246.69;5001381;28;20049;-57
2023/05/19 03:41:12;;;;;;;11.77;3.58;;;;;;;14.09;62.85;101238.84;4994214;28;20050;-55
2023/05/19 03:43:38;;;;;;;9.32;3.30;;;;;;;13.94;63.48;101238.81;4978310;28;20058;-55
2023/05/19 03:46:05;;;;;;;10.25;3.70;;;;;;;13.81;63.97;101227.53;4972835;28;20043;-54
2023/05/19 03:48:32;;;;;;;9.18;3.75;;;;;;;13.72;64.58;101228.34;4973406;28;20138;-54
2023/05/19 03:50:58;;;;;;;9.32;4.22;;;;;;;13.67;63.62;101230.06;4981376;28;20052;-52
2023/05/19 03:53:25;;;;;;;11.32;4.00;;;;;;;13.58;63.90;101223.09;5000253;28;20068;-56
2023/05/19 03:55:52;;;;;;;12.85;3.90;;;;;;;13.54;64.72;101229.16;4997512;28;20050;-54
2023/05/19 03:58:18;;;;;;;10.48;3.70;;;;;;;13.48;64.29;101225.66;4997023;28;20053;-55
2023/05/19 04:00:45;;;;;;;9.65;4.15;;;;;;;13.48;64.48;101235.19;5000335;28;20631;-55
2023/05/19 04:03:11;;;;;;;9.40;3.50;;;;;;;13.47;64.66;101228.22;4997786;28;20047;-53
2023/05/19 04:05:38;;;;;;;11.80;3.70;;;;;;;13.49;64.66;101229.13;4991281;28;20047;-54
2023/05/19 04:08:05;;;;;;;14.23;4.40;;;;;;;13.49;64.34;101226.53;4982348;28;20101;-51
2023/05/19 04:10:32;;;;;;;11.10;4.13;;;;;;;13.46;64.37;101222.16;4982889;28;20141;-56
2023/05/19 04:12:59;;;;;;;10.32;3.70;;;;;;;13.42;64.62;101228.22;4981151;28;20055;-57
2023/05/19 04:15:26;;;;;;;11.23;4.47;;;;;;;13.30;65.60;101231.63;4975498;28;20057;-53
2023/05/19 04:17:52;;;;;;;12.07;3.95;;;;;;;13.27;65.75;101236.81;4973144;28;20055;-58
2023/05/19 04:20:19;;;;;;;9.90;3.97;;;;;;;13.25;64.94;101243.75;4975233;28;20498;-52
2023/05/19 04:22:46;;;;;;;8.23;3.55;;;;;;;13.24;65.02;101236.78;4978451;28;20050;-58
2023/05/19 04:25:12;;;;;;;11.55;5.25;;;;;;;13.21;65.62;101242.84;4982968;28;20042;-54
2023/05/19 04:27:39;;;;;;;9.40;3.65;;;;;;;13.23;64.87;101266.28;4980692;28;20051;-55
2023/05/19 04:30:07;;;;;;;9.55;3.63;;;;;;;13.25;64.90;101251.56;4973417;28;20129;-52
2023/05/19 04:32:36;;;;;;;9.95;4.22;;;;;;;13.26;65.96;101245.47;4978475;28;20061;-52
2023/05/19 04:35:03;;;;;;;9.25;3.58;;;;;;;13.27;65.51;101262.81;4986485;28;20129;-55
2023/05/19 04:37:30;;;;;;;11.35;3.65;;;;;;;13.28;64.84;101259.38;4977632;28;20074;-57
2023/05/19 04:39:56;;;;;;;10.02;3.63;;;;;;;13.29;65.47;101268.91;4976790;28;20101;-54
2023/05/19 04:42:24;;;;;;;13.65;4.13;;;;;;;13.28;65.40;101254.19;4979051;28;20050;-55
2023/05/19 04:44:51;;;;;;;11.23;3.70;;;;;;;13.29;64.98;101261.13;4982954;28;20084;-51
2023/05/19 04:47:20;;;;;;;12.30;3.85;;;;;;;13.31;65.47;101264.56;4998980;28;20501;-50
2023/05/19 04:49:47;;;;;;;12.82;4.20;;;;;;;13.34;65.28;101262.00;5002217;28;20046;-51
2023/05/19 04:52:14;;;;;;;11.70;4.75;;;;;;;13.38;65.29;101257.69;4996954;28;20042;-48
2023/05/19 04:54:41;;;;;;;9.88;4.70;;;;;;;13.39;64.61;101261.16;4990427;28;20050;-48
2023/05/19 04:57:09;;;;;;;12.30;4.32;;;;;;;13.41;65.46;101259.44;4997435;28;20397;-54
2023/05/19 04:59:35;;;;;;;10.88;3.88;;;;;;;13.42;64.50;101262.06;4995052;28;20053;-53
2023/05/19 05:02:03;;;;;;;9.45;4.05;;;;;;;13.45;65.20;101250.78;4993625;28;20046;-48
2023/05/19 05:04:29;;;;;;;13.10;3.90;;;;;;;13.47;65.48;101249.03;4995264;28;20046;-53
2023/05/19 05:06:56;;;;;;;10.45;3.80;;;;;;;13.52;64.80;101254.31;5002261;28;20050;-54
2023/05/19 05:09:23;;;;;;;11.82;4.47;;;;;;;13.55;64.58;101247.41;4988973;28;20058;-54
2023/05/19 05:11:50;;;;;;;12.75;4.18;;;;;;;13.56;65.42;101241.31;4992878;28;20529;-52
2023/05/19 05:14:17;;;;;;;12.55;3.83;;;;;;;13.58;65.03;101244.78;4997184;28;20054;-56
2023/05/19 05:16:44;;;;;;;13.15;3.50;;;;;;;13.59;64.79;101238.75;4991141;28;20129;-57
2023/05/19 05:19:11;;;;;;;9.85;4.47;;;;;;;13.62;64.20;101240.47;4996049;28;20046;-56
2023/05/19 05:21:38;;;;;;;9.02;4.07;;;;;;;13.61;64.67;101242.19;4993011;28;20082;-55
2023/05/19 05:24:05;;;;;;;10.23;4.00;;;;;;;13.63;64.97;101244.81;4989047;28;20506;-53
2023/05/19 05:26:32;;;;;;;9.30;4.45;;;;;;;13.64;64.70;101246.53;4994281;28;20508;-51
2023/05/19 05:28:59;;;;;;;13.07;4.28;;;;;;;13.66;64.63;101254.34;4994469;28;20096;-53
2023/05/19 05:31:25;;;;;;;12.27;4.25;;;;;;;13.68;64.62;101257.84;4996437;28;20081;-54
2023/05/19 05:33:52;;;;;;;11.15;4.32;;;;;;;13.71;64.59;101263.06;4993717;28;20053;-54
2023/05/19 05:36:19;;;;;;;12.18;4.55;;;;;;;13.74;64.19;101278.69;4990295;28;20049;-49
2023/05/19 05:38:46;;;;;;;9.38;4.28;;;;;;;13.76;64.60;101282.19;4996907;28;20054;-55
2023/05/19 05:41:12;;;;;;;11.90;3.72;;;;;;;13.78;64.20;101285.66;4999391;28;20061;-52
2023/05/19 05:43:39;;;;;;;9.48;3.42;;;;;;;13.80;63.96;101270.91;4997446;28;20050;-53
2023/05/19 05:46:05;;;;;;;10.70;4.13;;;;;;;13.81;63.93;101267.44;5000335;28;20117;-52
2023/05/19 05:48:32;;;;;;;9.90;4.30;;;;;;;13.83;64.17;101268.31;4995622;28;20560;-54
2023/05/19 05:50:59;;;;;;;12.80;4.25;;;;;;;13.84;64.89;101272.66;4994908;28;20054;-50
2023/05/19 05:53:30;;;;;;;15.02;4.28;;;;;;;13.90;63.80;101273.53;4994561;28;20041;-58
2023/05/19 05:55:57;;;;;;;9.45;4.75;;;;;;;13.94;64.10;101272.66;4997453;28;21017;-57
2023/05/19 05:58:24;;;;;;;10.13;3.88;;;;;;;14.00;64.14;101275.31;4976156;28;20051;-55
2023/05/19 06:00:52;;;;;;;8.63;3.63;;;;;;;14.09;64.64;101275.31;4971121;28;20063;-55
2023/05/19 06:03:22;;;;;;;8.35;3.47;;;;;;;14.19;64.04;101276.22;4969414;28;20066;-55
2023/05/19 06:05:49;;;;;;;12.45;4.55;;;;;;;14.31;64.33;101284.91;4974025;28;20682;-53
2023/05/19 06:08:16;;;;;;;11.48;4.35;;;;;;;14.36;63.78;101278.84;4970460;28;20051;-55
2023/05/19 06:10:43;;;;;;;10.52;4.32;;;;;;;14.47;64.10;101275.38;4979034;28;20051;-59
2023/05/19 06:13:15;;;;;;;9.35;3.83;;;;;;;14.55;64.01;101276.25;4971040;28;20058;-56
2023/05/19 06:15:42;;;;;;;13.25;4.25;;;;;;;14.62;63.74;101275.38;4973430;28;20081;-50
2023/05/19 06:18:09;;;;;;;10.00;4.25;;;;;;;14.71;63.91;101278.88;4968588;28;20572;-55
2023/05/19 06:20:35;;;;;;;13.35;4.13;;;;;;;14.81;63.57;101280.63;4971287;28;20053;-54
2023/05/19 06:23:02;;;;;;;11.23;3.53;;;;;;;14.93;63.18;101278.91;4970576;28;20058;-51
2023/05/19 06:25:29;;;;;;;10.20;3.80;;;;;;;14.95;63.52;101279.75;4971881;28;20244;-55
2023/05/19 06:27:56;;;;;;;9.80;3.95;;;;;;;14.93;63.48;101281.50;4966018;28;20073;-56
2023/05/19 06:30:23;;;;;;;13.65;4.63;;;;;;;14.88;63.54;101282.38;4982119;28;20046;-53
2023/05/19 06:32:50;;;;;;;8.20;3.90;;;;;;;14.86;63.46;101276.28;4984022;28;20489;-53
2023/05/19 06:35:16;;;;;;;13.50;4.95;;;;;;;14.84;63.35;101274.53;4988200;28;20048;-55
2023/05/19 06:37:43;;;;;;;11.55;4.22;;;;;;;14.78;63.73;101275.41;4988049;28;20050;-58
2023/05/19 06:40:10;;;;;;;13.73;4.35;;;;;;;14.76;63.09;101275.38;4986438;28;20050;-56
2023/05/19 06:42:37;;;;;;;12.95;4.55;;;;;;;14.76;63.53;101277.16;4985824;28;20053;-57
2023/05/19 06:45:04;;;;;;;12.45;4.45;;;;;;;14.80;63.63;101265.88;4997289;28;20065;-58
2023/05/19 06:47:31;;;;;;;10.70;4.30;;;;;;;14.87;63.31;101271.94;4985690;28;20058;-55
2023/05/19 06:49:58;;;;;;;9.95;4.18;;;;;;;14.89;63.21;101273.66;4986615;28;20137;-54
2023/05/19 06:52:24;;;;;;;9.18;4.65;;;;;;;14.93;63.23;101273.69;4991258;28;20050;-56
2023/05/19 06:54:51;;;;;;;13.55;4.57;;;;;;;14.98;62.98;101275.41;4988476;28;20505;-56
2023/05/19 06:57:17;;;;;;;17.33;5.40;;;;;;;15.04;63.41;101283.22;4994343;28;20061;-58
2023/05/19 06:59:45;;;;;;;11.32;4.88;;;;;;;15.08;62.90;101293.66;4990977;28;20254;-55
2023/05/19 07:02:12;;;;;;;10.95;5.47;;;;;;;15.10;63.19;101303.19;4992604;28;20776;-55
2023/05/19 07:04:39;;;;;;;9.57;4.47;;;;;;;15.09;63.37;101301.47;4988585;28;20479;-57
2023/05/19 07:07:06;;;;;;;9.30;4.38;;;;;;;15.10;62.90;101303.19;4987670;28;20042;-53
2023/05/19 07:09:33;;;;;;;18.48;5.18;;;;;;;15.11;62.99;101309.31;4989396;28;20454;-58
2023/05/19 07:12:00;;;;;;;10.57;4.30;;;;;;;15.13;63.17;101305.81;4989822;28;20050;-56
2023/05/19 07:14:28;;;;;;;10.65;4.43;;;;;;;15.15;63.11;101308.44;4995124;28;20050;-57
2023/05/19 07:16:55;;;;;;;11.88;4.63;;;;;;;15.18;63.59;101310.16;4995341;28;21185;-55
2023/05/19 07:19:22;;;;;;;10.48;4.95;;;;;;;15.21;63.57;101313.66;4988734;28;20513;-50
2023/05/19 07:21:49;;;;;;;14.30;4.68;;;;;;;15.23;63.23;101313.66;4996536;28;20530;-55
2023/05/19 07:24:16;;;;;;;10.55;3.95;;;;;;;15.26;63.76;101316.22;4993753;28;20046;-54
2023/05/19 07:26:43;;;;;;;14.25;4.95;;;;;;;15.31;63.60;101327.53;4991156;28;20050;-53
2023/05/19 07:29:09;;;;;;;14.90;4.82;;;;;;;15.34;63.92;101324.94;4997144;28;20052;-56
2023/05/19 07:31:36;;;;;;;12.52;4.32;;;;;;;15.39;63.52;101322.28;4993009;28;20046;-56
2023/05/19 07:34:03;;;;;;;15.63;5.15;;;;;;;15.41;63.80;101328.41;4998336;28;20049;-51
2023/05/19 07:36:30;;;;;;;12.05;5.38;;;;;;;15.46;63.16;101325.75;4996667;28;20054;-58
2023/05/19 07:38:57;;;;;;;9.77;4.55;;;;;;;15.51;63.54;101334.47;4993664;28;20058;-57
2023/05/19 07:41:25;;;;;;;11.93;5.25;;;;;;;15.56;63.14;101322.25;4995703;28;20133;-51
2023/05/19 07:43:51;;;;;;;10.30;4.15;;;;;;;15.60;63.46;101321.38;4989992;28;20065;-51
2023/05/19 07:46:19;;;;;;;11.93;5.10;;;;;;;15.66;63.16;101313.53;4995533;28;20037;-46
2023/05/19 07:48:46;;;;;;;12.02;5.15;;;;;;;15.73;63.32;101309.13;4992065;28;20051;-55
2023/05/19 07:51:13;;;;;;;11.88;5.22;;;;;;;15.85;63.38;101309.97;4992807;28;20050;-49
2023/05/19 07:53:39;;;;;;;11.93;5.45;;;;;;;15.96;63.28;101307.31;4996314;28;20057;-50
2023/05/19 07:56:06;;;;;;;14.88;4.82;;;;;;;16.11;63.16;101309.00;4995648;28;20049;-54
2023/05/19 07:58:33;;;;;;;12.95;4.53;;;;;;;16.26;62.74;101310.66;4996988;28;20050;-53
2023/05/19 08:01:00;;;;;;;10.55;4.75;;;;;;;16.39;61.70;101309.69;4988844;28;20057;-55
2023/05/19 08:03:28;;;;;;;12.95;4.53;;;;;;;16.45;62.35;101309.66;5000576;28;20042;-55
2023/05/19 08:05:55;;;;;;;13.90;5.22;;;;;;;16.55;61.63;101313.06;4995231;28;20061;-53
2023/05/19 08:08:22;;;;;;;10.02;4.50;;;;;;;16.56;62.03;101314.78;4997639;28;20408;-58
2023/05/19 08:10:48;;;;;;;12.70;4.80;;;;;;;16.62;61.48;101315.63;4992941;28;20053;-56
2023/05/19 08:13:15;;;;;;;13.30;5.00;;;;;;;16.73;61.37;101312.94;4993719;28;20132;-58
2023/05/19 08:15:42;;;;;;;9.38;4.75;;;;;;;16.87;61.44;101316.31;4988366;28;20041;-54
2023/05/19 08:18:09;;;;;;;13.70;4.78;;;;;;;17.01;60.67;101318.78;4993749;28;20092;-53
2023/05/19 08:20:36;;;;;;;11.20;5.05;;;;;;;17.25;60.76;101313.38;4992909;28;20058;-48
2023/05/19 08:23:03;;;;;;;12.48;4.65;;;;;;;17.39;60.74;101306.22;4998595;28;20050;-56
2023/05/19 08:25:39;;;;;;;13.13;4.90;;;;;;;17.46;59.84;101302.66;4998887;28;20065;-49
2023/05/19 08:28:06;;;;;;;11.05;5.60;;;;;;;17.55;59.81;101308.66;4990655;28;20494;-56
2023/05/19 08:30:33;;;;;;;11.05;4.78;;;;;;;17.71;59.63;101299.75;5001020;28;20080;-58
2023/05/19 08:33:00;;;;;;;11.27;4.45;;;;;;;17.89;59.56;101308.25;4990497;28;20056;-52
2023/05/19 08:35:28;;;;;;;13.27;5.75;;;;;;;18.03;59.18;101302.81;5001043;28;20065;-56
2023/05/19 08:37:54;;;;;;;12.25;5.00;;;;;;;18.18;58.67;101306.16;5000224;28;20068;-55
2023/05/19 08:40:22;;;;;;;11.82;4.97;;;;;;;18.22;58.18;101300.84;4990954;28;20053;-57
2023/05/19 08:42:49;;;;;;;12.70;4.75;;;;;;;18.20;58.23;101294.75;4986945;28;20057;-57
2023/05/19 08:45:16;;;;;;;11.48;5.30;;;;;;;18.17;57.70;101297.41;4984871;28;20068;-56
2023/05/19 08:47:45;;;;;;;12.60;5.30;;;;;;;18.13;57.88;101300.97;4987953;28;20062;-52
2023/05/19 08:50:16;;;;;;;10.77;4.90;;;;;;;18.17;58.87;101296.56;4976860;28;20141;-53
2023/05/19 08:58:02;;;;;;;14.13;6.80;;;;;;;18.27;57.25;101300.75;4994985;28;20985;-50
2023/05/19 09:00:31;;;;;;;14.40;5.47;;;;;;;18.37;57.34;101309.34;4980743;28;20038;-55
2023/05/19 09:02:59;;;;;;;12.10;5.90;;;;;;;18.47;57.63;101305.69;4982484;28;20754;-52
2023/05/19 09:05:45;;;;;;;10.13;5.53;;;;;;;18.52;56.94;101304.75;4980752;28;20054;-59
2023/05/19 09:08:12;;;;;;;10.98;5.53;;;;;;;18.55;57.14;101309.97;4982871;28;20051;-54
2023/05/19 09:10:39;;;;;;;11.43;5.35;;;;;;;18.59;56.73;101306.41;4985495;28;20054;-50
2023/05/19 09:13:06;;;;;;;10.20;5.57;;;;;;;18.75;56.37;101312.28;4984378;28;20073;-56
2023/05/19 09:15:35;;;;;;;9.95;4.82;;;;;;;18.90;56.27;101313.75;4987529;28;20101;-56
2023/05/19 09:18:09;;;;;;;;;;;;;;;18.88;55.71;101305.91;4977587;28;20042;-55
2023/05/19 09:20:39;;;;;;;9.23;5.78;;;;;;;19.06;55.81;101302.97;4978596;28;19929;-53
2023/05/19 09:23:06;;;;;;;10.48;4.95;;;;;;;19.17;54.88;101305.44;4979326;28;20560;-53
2023/05/19 09:25:33;;;;;;;10.48;4.75;;;;;;;19.27;55.21;101301.75;4983902;28;20137;-57
2023/05/19 09:28:00;;;;;;;8.10;4.45;;;;;;;19.34;54.88;101308.63;4982860;28;20058;-51
2023/05/19 09:30:27;;;;;;;7.45;4.32;;;;;;;19.29;53.87;101312.22;4991152;28;20073;-57
2023/05/19 09:32:53;;;;;;;7.97;4.78;;;;;;;19.25;54.26;101309.66;4980661;28;20055;-56
2023/05/19 09:35:20;;;;;;;11.98;4.75;;;;;;;19.26;53.98;101311.38;4985361;28;20049;-55
2023/05/19 09:37:47;;;;;;;8.27;4.97;;;;;;;19.36;54.10;101313.84;4978721;28;20089;-54
2023/05/19 09:40:14;;;;;;;7.70;4.45;;;;;;;19.49;54.23;101312.69;4977261;28;20049;-57
2023/05/19 09:42:42;;;;;;;9.40;3.72;;;;;;;19.56;53.65;101312.59;4983746;28;20587;-55
2023/05/19 09:45:10;;;;;;;11.52;4.68;;;;;;;19.60;53.40;101307.25;4988921;28;20104;-53
2023/05/19 09:47:38;;;;;;;8.90;4.85;;;;;;;19.65;53.45;101307.13;4993749;28;20054;-54
2023/05/19 09:50:07;;;;;;;12.60;4.53;;;;;;;19.70;53.07;101307.91;4996452;28;20609;-56
2023/05/19 09:52:39;;;;;;;9.35;4.50;;;;;;;19.77;53.27;101301.63;4981297;28;20474;-54
2023/05/19 09:55:09;;;;;;;7.40;4.80;;;;;;;19.92;53.32;101310.06;4998272;28;20054;-49
2023/05/19 09:57:37;;;;;;;9.98;5.90;;;;;;;20.02;53.11;101305.50;4989164;28;20410;-50
2023/05/19 10:00:13;;;;;;;10.60;4.65;;;;;;;20.08;52.90;101312.38;4997944;28;20054;-49
2023/05/19 10:02:42;;;;;;;9.30;5.15;;;;;;;20.02;52.73;101316.91;5003195;28;20556;-52
2023/05/19 10:05:15;;;;;;;11.18;5.72;;;;;;;20.03;52.75;101313.34;5005973;28;20058;-50
2023/05/19 10:07:44;;;;;;;8.27;4.20;;;;;;;20.03;52.54;101315.16;4996120;28;20039;-51
2023/05/19 10:10:12;;;;;;;9.40;4.80;;;;;;;20.06;52.78;101317.69;4987273;28;20057;-51
2023/05/19 10:12:40;;;;;;;10.98;4.78;;;;;;;20.11;52.47;101320.22;4984905;28;20050;-51
2023/05/19 10:15:10;;;;;;;10.15;5.15;;;;;;;20.14;52.26;101320.16;4986164;28;20106;-51
2023/05/19 10:17:39;;;;;;;7.30;4.30;;;;;;;20.12;52.52;101324.56;4990875;28;20130;-51
2023/05/19 10:20:09;;;;;;;8.23;4.68;;;;;;;20.08;52.14;101333.44;4987729;28;20446;-48
2023/05/19 10:22:37;;;;;;;12.77;5.32;;;;;;;20.02;51.91;101318.66;4991443;28;20046;-50
2023/05/19 10:25:05;;;;;;;9.35;5.78;;;;;;;19.93;52.62;101327.59;4993389;28;20058;-52
2023/05/19 10:27:35;;;;;;;7.97;5.18;;;;;;;19.87;52.50;101327.72;4992316;28;20058;-52
2023/05/19 10:30:08;;;;;;;9.75;4.93;;;;;;;19.72;52.66;101319.25;4983165;28;20046;-52
2023/05/19 10:32:40;;;;;;;10.02;5.20;;;;;;;19.67;52.99;101321.13;4979131;28;21641;-50
2023/05/19 10:40:31;;;;;;;8.98;3.47;;;;;;;19.59;52.36;101317.78;5011867;27;20396;-50
2023/05/19 10:43:12;;;;;;;8.75;4.15;;;;;;;19.57;52.24;101316.94;4998711;28;20485;-53
2023/05/19 10:45:47;;;;;;;6.75;3.20;;;;;;;19.58;52.72;101300.25;4991451;28;20710;-48
2023/05/19 10:48:15;;;;;;;6.47;3.13;;;;;;;19.61;52.76;101310.72;5028161;28;20133;-48
2023/05/19 10:50:44;;;;;;;9.18;3.97;;;;;;;19.61;52.88;101305.47;4996407;28;20050;-53
2023/05/19 10:53:20;;;;;;;10.50;3.60;;;;;;;19.53;52.05;101309.09;4999991;28;20053;-51
2023/05/19 11:01:23;;;;;;;7.38;3.50;;;;;;;19.42;52.36;101316.34;5039930;27;20412;-46
2023/05/19 11:03:52;;;;;;;9.57;4.55;;;;;;;19.40;52.38;101318.13;5000185;28;20507;-47
2023/05/19 11:06:23;;;;;;;6.90;3.65;;;;;;;19.38;52.34;101319.91;5002747;28;20061;-51
2023/05/19 11:08:52;;;;;;;7.97;3.15;;;;;;;19.30;52.26;101322.72;4996851;28;20057;-47
2023/05/19 11:11:19;;;;;;;6.07;2.97;;;;;;;19.24;52.50;101321.06;4997384;28;20494;-52
2023/05/19 11:13:51;;;;;;;7.85;3.15;;;;;;;19.23;52.58;101321.97;5001044;28;20053;-49
2023/05/19 11:16:25;;;;;;;8.65;3.42;;;;;;;19.21;52.46;101318.50;5000257;28;20152;-49
2023/05/19 11:18:53;;;;;;;9.73;3.72;;;;;;;19.21;52.87;101317.59;5002376;28;20732;-50
2023/05/19 11:21:20;;;;;;;10.65;3.70;;;;;;;19.18;52.87;101315.91;5003873;28;20053;-48
2023/05/19 11:23:47;;;;;;;8.13;3.10;;;;;;;19.14;53.30;101312.50;5000409;28;20050;-50
2023/05/19 11:26:13;;;;;;;9.88;4.20;;;;;;;19.14;53.24;101316.88;5000724;28;20062;-50
2023/05/19 11:28:42;;;;;;;7.35;3.50;;;;;;;19.03;53.00;101319.66;5000469;28;20050;-49
2023/05/19 11:31:09;;;;;;;10.25;3.53;;;;;;;18.96;53.47;101312.78;5020322;28;20052;-50
2023/05/19 11:33:36;;;;;;;7.90;3.60;;;;;;;18.91;53.51;101315.47;5021662;28;20049;-52
2023/05/19 11:36:03;;;;;;;11.45;4.57;;;;;;;18.91;53.23;101317.25;5025972;28;20359;-52
2023/05/19 11:38:31;;;;;;;11.65;5.15;;;;;;;18.85;53.60;101320.84;5016360;28;20049;-47
2023/05/19 11:40:59;;;;;;;13.90;5.82;;;;;;;18.77;53.65;101322.75;5019289;28;20058;-48
2023/05/19 11:43:26;;;;;;;11.93;5.93;;;;;;;18.71;54.50;101314.06;5021539;28;20587;-48
2023/05/19 11:45:53;;;;;;;12.35;5.70;;;;;;;18.63;54.53;101310.69;5026276;28;20065;-53
2023/05/19 11:48:21;;;;;;;12.25;6.13;;;;;;;18.56;54.54;101319.56;5022697;28;20060;-50
2023/05/19 11:50:48;;;;;;;16.25;6.82;;;;;;;18.50;54.77;101324.03;5021334;28;20176;-47
2023/05/19 11:53:16;;;;;;;15.57;7.15;;;;;;;18.47;54.62;101316.19;5021103;28;20061;-47